Annandale On Hudson, New York
Current Conditions -  °F | °C
As of 11:53 AM on Friday 24 Oct 2014 (Local Time) from KPOU Reporting Station
Broken Clouds Broken Clouds  
Wind Chill: 55°   Ceiling: 3100
Heat Index: 55°   Visibility: 10mi
Dew Point: 43°   Wind: 12mph
Humidity: 64%   Direction: 340°NNW
Pressure: 29.81"   Gusts: 17mph
Location:  42.01°N, 73.9°W
Report Text: KPOU 241553Z 34010G15KT 10SM BKN031 BKN041 BKN110 13/06 A2981 RMK AO2 SLP091 T01280061
Loading
Personal Weather Stations






























Interactive Weather Map New forecast layout! Learn more

10-Day Weather Forecast

Advertisements
Track Severe Weather on mobile